Time;durP1;ratioP1;P1;durP2;ratioP2;P2;SDS_P1;SDS_P2;PMS_P1;PMS_P2;Temp;Humidity;BMP_temperature;BMP_pressure;BME280_temperature;BME280_humidity;BME280_pressure;Samples;Min_cycle;Max_cycle;Signal;HPM_P1;HPM_P2
2023/04/07 00:01:54;;;;;;;4.70;1.20;;;;;;;5.41;47.46;100340.78;5079217;28;20181;-38
2023/04/07 00:04:20;;;;;;;8.38;1.30;;;;;;;5.35;46.84;100348.53;5075702;28;20035;-38
2023/04/07 00:06:45;;;;;;;3.90;1.30;;;;;;;5.33;47.51;100345.97;5072070;28;20032;-39
2023/04/07 00:09:11;;;;;;;3.13;1.30;;;;;;;5.30;47.13;100329.66;5081429;28;20566;-39
2023/04/07 00:11:37;;;;;;;4.43;1.13;;;;;;;5.20;47.35;100318.50;5076562;28;20534;-39
2023/04/07 00:14:03;;;;;;;1.35;0.80;;;;;;;5.30;47.25;100339.94;5069832;28;20060;-38
2023/04/07 00:16:29;;;;;;;5.85;1.25;;;;;;;5.24;47.13;100333.09;5078336;28;20037;-38
2023/04/07 00:18:55;;;;;;;2.03;1.10;;;;;;;5.25;47.08;100334.81;5073386;28;20051;-38
2023/04/07 00:21:20;;;;;;;3.22;1.20;;;;;;;5.27;47.48;100339.97;5070285;28;20029;-38
2023/04/07 00:23:47;;;;;;;3.50;1.17;;;;;;;5.27;47.40;100342.56;5070548;28;20041;-38
2023/04/07 00:26:13;;;;;;;2.95;1.05;;;;;;;5.03;47.63;100305.66;5088086;28;20397;-38
2023/04/07 00:28:42;;;;;;;3.28;1.20;;;;;;;5.18;47.85;100334.84;5086094;28;20055;-38
2023/04/07 00:31:08;;;;;;;2.97;1.20;;;;;;;5.18;47.92;100334.84;5089580;28;20040;-39
2023/04/07 00:33:34;;;;;;;1.98;1.10;;;;;;;5.16;47.77;100336.56;5070906;28;20048;-39
2023/04/07 00:36:00;;;;;;;2.05;1.00;;;;;;;5.13;47.40;100330.53;5084223;28;20104;-37
2023/04/07 00:38:26;;;;;;;2.83;1.20;;;;;;;5.12;47.91;100328.00;5090950;28;20109;-37
2023/04/07 00:40:58;;;;;;;2.45;1.30;;;;;;;5.13;48.08;100334.00;5072264;28;20504;-38
2023/04/07 00:43:24;;;;;;;3.30;1.30;;;;;;;5.10;47.82;100325.41;5083007;28;20166;-38
2023/04/07 00:45:52;;;;;;;2.65;1.08;;;;;;;5.07;47.98;100328.00;5087910;28;20040;-39
2023/04/07 00:48:17;;;;;;;2.85;1.05;;;;;;;5.05;48.16;100334.00;5089198;28;20131;-39
2023/04/07 00:50:44;;;;;;;1.90;1.33;;;;;;;5.01;48.06;100338.31;5069151;28;20127;-38
2023/04/07 00:53:11;;;;;;;3.80;1.45;;;;;;;4.99;47.98;100334.88;5072554;28;20040;-38
2023/04/07 00:55:37;;;;;;;2.58;1.20;;;;;;;4.96;47.97;100336.59;5079556;28;20135;-38
2023/04/07 00:58:04;;;;;;;6.00;1.20;;;;;;;4.92;48.20;100337.47;5086992;28;20076;-39
2023/04/07 01:00:32;;;;;;;4.43;1.30;;;;;;;4.89;48.38;100329.72;5086188;28;20153;-38
2023/04/07 01:03:03;;;;;;;4.18;1.30;;;;;;;4.87;48.09;100334.00;5071849;28;20089;-38
2023/04/07 01:05:42;;;;;;;1.50;1.00;;;;;;;4.85;48.27;100338.31;5068977;28;20033;-39
2023/04/07 01:08:16;;;;;;;1.60;1.20;;;;;;;4.83;48.32;100334.88;5052349;28;20044;-38
2023/04/07 01:10:50;;;;;;;1.58;1.10;;;;;;;4.79;48.39;100339.19;5060277;28;20068;-39
2023/04/07 01:13:51;;;;;;;2.72;0.90;;;;;;;4.75;48.11;100332.31;5093645;28;20132;-39
2023/04/07 01:16:36;;;;;;;1.70;1.08;;;;;;;4.72;48.68;100334.03;5080046;28;20131;-38
2023/04/07 01:19:16;;;;;;;5.68;1.30;;;;;;;4.68;48.62;100343.47;5068530;28;20295;-39
2023/04/07 01:21:48;;;;;;;3.42;1.30;;;;;;;4.64;48.42;100346.91;5071042;28;20040;-38
2023/04/07 01:24:42;;;;;;;2.35;1.15;;;;;;;4.63;48.55;100350.34;5086060;28;20044;-38
2023/04/07 01:27:39;;;;;;;3.97;1.25;;;;;;;4.61;48.98;100352.03;5085266;28;20044;-38
2023/04/07 01:30:09;;;;;;;12.10;1.40;;;;;;;4.60;48.98;100347.78;5068217;28;20049;-38
2023/04/07 01:32:35;;;;;;;;;;;;;;;4.58;48.76;100344.34;5060913;28;20481;-38
2023/04/07 01:35:02;;;;;;;4.85;1.10;;;;;;;4.52;48.96;100342.63;5088537;28;20035;-38
2023/04/07 01:37:29;;;;;;;3.95;0.90;;;;;;;4.33;49.14;100322.00;5088615;28;20104;-38
2023/04/07 01:39:55;;;;;;;5.15;1.40;;;;;;;4.48;49.47;100358.06;5087483;28;20061;-38
2023/04/07 01:42:22;;;;;;;4.45;1.30;;;;;;;4.46;49.36;100347.75;5062074;28;20047;-39
2023/04/07 01:44:48;;;;;;;3.35;1.15;;;;;;;4.31;49.17;100316.00;5088194;28;20089;-37
2023/04/07 01:47:15;;;;;;;2.53;1.23;;;;;;;4.44;48.99;100343.47;5087052;28;20060;-38
2023/04/07 01:49:41;;;;;;;3.15;1.13;;;;;;;4.42;49.13;100337.47;5071417;28;20144;-40
2023/04/07 01:52:07;;;;;;;2.80;1.27;;;;;;;4.43;49.62;100340.03;5078015;28;20056;-38
2023/04/07 01:54:34;;;;;;;4.25;1.55;;;;;;;4.29;49.59;100326.31;5067862;28;20142;-39
2023/04/07 01:57:00;;;;;;;1.88;1.08;;;;;;;4.39;49.45;100348.63;5067341;28;20119;-37
2023/04/07 01:59:27;;;;;;;4.10;1.15;;;;;;;4.35;49.57;100346.88;5086570;28;20047;-39
2023/04/07 02:01:54;;;;;;;3.40;1.20;;;;;;;4.33;49.27;100345.19;5084166;28;20037;-39
2023/04/07 02:04:39;;;;;;;3.20;1.20;;;;;;;4.29;49.81;100346.91;5033373;28;20055;-39
2023/04/07 02:07:09;;;;;;;3.35;1.23;;;;;;;4.25;49.89;100340.88;5085449;28;20044;-38
2023/04/07 02:09:41;;;;;;;4.13;1.17;;;;;;;4.23;50.05;100345.16;5083552;28;20064;-38
2023/04/07 02:12:11;;;;;;;2.72;1.10;;;;;;;4.21;50.00;100348.59;5044846;28;20516;-38
2023/04/07 02:14:41;;;;;;;2.00;1.17;;;;;;;4.13;49.57;100337.44;5055318;28;20048;-37
2023/04/07 02:17:10;;;;;;;2.65;1.15;;;;;;;4.15;49.67;100346.00;5069976;28;20047;-39
2023/04/07 02:19:37;;;;;;;3.05;1.35;;;;;;;4.13;50.09;100348.59;5081918;28;20060;-38
2023/04/07 02:22:04;;;;;;;3.47;1.17;;;;;;;4.08;50.29;100349.44;5083220;28;20076;-38
2023/04/07 02:24:30;;;;;;;3.88;1.35;;;;;;;3.97;50.13;100328.81;5049510;28;20604;-40
2023/04/07 02:26:56;;;;;;;3.42;1.50;;;;;;;3.73;50.09;100291.00;5093125;28;20147;-38
2023/04/07 02:29:23;;;;;;;1.83;1.17;;;;;;;4.04;50.18;100350.25;5079539;28;20043;-38
2023/04/07 02:31:49;;;;;;;3.47;1.30;;;;;;;3.85;49.84;100318.47;5088677;28;20059;-39
2023/04/07 02:34:15;;;;;;;2.78;1.27;;;;;;;3.86;50.18;100332.19;5067133;28;20467;-39
2023/04/07 02:36:42;;;;;;;3.50;1.55;;;;;;;3.99;50.24;100351.94;5060473;28;20032;-38
2023/04/07 02:39:08;;;;;;;8.20;1.70;;;;;;;4.02;50.44;100354.56;5088424;28;20076;-38
2023/04/07 02:41:34;;;;;;;3.03;1.38;;;;;;;3.99;50.22;100349.38;5080963;28;20044;-38
2023/04/07 02:44:00;;;;;;;5.05;1.30;;;;;;;3.97;50.33;100351.97;5049622;28;20048;-38
2023/04/07 02:46:26;;;;;;;6.88;1.60;;;;;;;3.96;50.38;100355.38;5066876;28;20051;-39
2023/04/07 02:48:52;;;;;;;2.42;1.30;;;;;;;3.94;50.88;100356.22;5063963;28;20043;-40
2023/04/07 02:51:17;;;;;;;2.45;1.30;;;;;;;3.93;50.46;100355.38;5066518;28;20056;-38
2023/04/07 02:53:43;;;;;;;7.38;1.75;;;;;;;3.90;50.32;100357.94;5068006;28;20044;-39
2023/04/07 02:56:10;;;;;;;7.50;1.40;;;;;;;3.85;50.72;100354.50;5050158;28;20044;-39
2023/04/07 02:58:36;;;;;;;2.45;1.42;;;;;;;3.90;50.64;100357.06;5066970;28;20051;-38
2023/04/07 03:01:02;;;;;;;6.07;1.48;;;;;;;3.66;50.84;100329.56;5068262;28;20036;-39
2023/04/07 03:03:31;;;;;;;6.88;1.80;;;;;;;3.85;50.73;100364.78;5059345;28;20032;-40
2023/04/07 03:06:05;;;;;;;7.53;1.40;;;;;;;3.82;50.52;100362.22;5054569;28;20043;-39
2023/04/07 03:08:32;;;;;;;7.00;1.58;;;;;;;3.86;50.66;100369.06;5068947;28;20047;-38
2023/04/07 03:10:58;;;;;;;2.65;1.30;;;;;;;3.87;50.97;100357.94;5086830;28;20032;-38
2023/04/07 03:13:28;;;;;;;;;;;;;;;3.88;50.82;100371.63;5069279;28;20409;-38
2023/04/07 03:15:54;;;;;;;6.68;1.33;;;;;;;3.65;50.69;100341.56;5100131;28;20474;-38
2023/04/07 03:18:21;;;;;;;2.97;1.10;;;;;;;3.85;50.49;100380.22;5070024;28;20039;-38
2023/04/07 03:20:47;;;;;;;6.50;1.42;;;;;;;3.87;50.96;100373.38;5103890;28;20043;-38
2023/04/07 03:23:15;;;;;;;3.17;1.60;;;;;;;3.91;50.75;100371.66;5078713;28;20047;-38
2023/04/07 03:25:41;;;;;;;8.82;1.55;;;;;;;3.89;50.87;100363.94;5085258;28;20097;-38
2023/04/07 03:28:08;;;;;;;5.90;1.50;;;;;;;3.91;50.56;100371.66;5087429;28;20048;-39
2023/04/07 03:30:37;;;;;;;5.00;1.58;;;;;;;3.91;50.66;100371.66;5071239;28;20040;-40
2023/04/07 03:33:03;;;;;;;9.85;2.13;;;;;;;3.79;50.50;100354.47;5070260;28;20064;-38
2023/04/07 03:35:30;;;;;;;4.07;1.42;;;;;;;3.80;50.46;100356.19;5070526;28;20047;-39
2023/04/07 03:37:56;;;;;;;6.63;1.50;;;;;;;3.79;50.51;100362.19;5087509;28;20044;-38
2023/04/07 03:40:22;;;;;;;4.05;1.50;;;;;;;3.95;50.84;100381.97;5070418;28;20044;-40
2023/04/07 03:42:48;;;;;;;3.20;1.40;;;;;;;3.83;50.56;100351.03;5063417;28;20048;-39
2023/04/07 03:45:16;;;;;;;5.82;1.60;;;;;;;4.01;50.69;100384.56;5041731;28;20431;-38
2023/04/07 03:47:47;;;;;;;3.63;1.70;;;;;;;4.06;50.60;100387.13;5074682;28;20046;-39
2023/04/07 03:50:15;;;;;;;3.72;1.30;;;;;;;4.09;50.66;100387.13;5057199;28;20116;-38
2023/04/07 03:53:02;;;;;;;8.40;1.55;;;;;;;4.04;50.52;100381.97;5076061;28;20052;-39
2023/04/07 03:55:30;;;;;;;4.70;1.33;;;;;;;3.98;50.49;100365.69;5105928;28;20036;-39
2023/04/07 03:58:02;;;;;;;6.30;1.48;;;;;;;4.00;50.39;100371.69;5073543;28;20043;-39
2023/04/07 04:00:32;;;;;;;7.38;1.65;;;;;;;4.20;50.70;100388.91;5073100;28;20036;-38
2023/04/07 04:03:10;;;;;;;7.32;1.52;;;;;;;4.28;50.38;100388.94;5073372;28;20036;-39
2023/04/07 04:05:42;;;;;;;10.38;2.67;;;;;;;4.41;50.45;100393.22;5072293;28;20048;-39
2023/04/07 04:08:13;;;;;;;6.40;2.20;;;;;;;4.47;50.12;100400.09;5084687;28;20059;-39
2023/04/07 04:10:40;;;;;;;5.25;1.80;;;;;;;4.49;49.89;100395.84;5089927;28;20054;-38
2023/04/07 04:13:06;;;;;;;6.40;1.65;;;;;;;4.48;49.64;100397.53;5072105;28;20082;-39
2023/04/07 04:15:33;;;;;;;5.35;1.58;;;;;;;4.48;49.48;100396.69;5088303;28;20046;-38
2023/04/07 04:18:01;;;;;;;6.90;1.75;;;;;;;4.53;49.63;100413.00;5090542;28;20052;-36
2023/04/07 04:20:27;;;;;;;3.40;1.30;;;;;;;4.59;49.66;100406.16;5068976;28;20538;-44
2023/04/07 04:22:53;;;;;;;6.68;1.75;;;;;;;4.61;49.58;100409.56;5070486;28;20057;-39
2023/04/07 04:25:19;;;;;;;6.85;1.75;;;;;;;4.44;48.98;100377.81;5079293;28;20044;-38
2023/04/07 04:27:49;;;;;;;4.30;1.50;;;;;;;4.65;49.05;100413.03;5068795;28;20120;-39
2023/04/07 04:30:24;;;;;;;7.28;1.80;;;;;;;4.69;49.13;100415.59;5088226;28;20047;-39
2023/04/07 04:32:54;;;;;;;5.05;1.38;;;;;;;4.73;49.10;100413.00;5087703;28;20044;-39
2023/04/07 04:35:31;;;;;;;7.68;1.40;;;;;;;4.76;48.72;100416.47;5068556;28;20046;-38
2023/04/07 04:38:10;;;;;;;9.82;1.40;;;;;;;4.83;48.67;100415.59;5086751;28;20534;-39
2023/04/07 04:40:39;;;;;;;;;;;;;;;4.91;48.59;100410.47;5073325;28;20060;-39
2023/04/07 04:43:08;;;;;;;4.20;1.30;;;;;;;4.90;48.39;100417.34;5085861;28;19927;-38
2023/04/07 04:45:35;;;;;;;;;;;;;;;4.92;48.50;100415.59;5072284;28;20131;-38
2023/04/07 04:48:03;;;;;;;9.23;1.83;;;;;;;4.96;48.57;100422.50;5088759;28;19977;-38
2023/04/07 04:50:29;;;;;;;5.72;1.95;;;;;;;5.02;48.60;100419.06;5071896;28;20061;-38
2023/04/07 04:52:55;;;;;;;4.22;1.67;;;;;;;4.92;48.08;100399.31;5088636;28;20050;-39
2023/04/07 04:55:23;;;;;;;4.43;1.83;;;;;;;5.08;47.92;100419.03;5068983;28;20047;-39
2023/04/07 04:57:50;;;;;;;4.68;2.25;;;;;;;5.08;48.07;100422.47;5085573;28;20040;-39
2023/04/07 05:00:22;;;;;;;8.50;2.03;;;;;;;5.14;48.05;100429.34;5068410;28;20828;-38
2023/04/07 05:02:54;;;;;;;9.15;2.05;;;;;;;5.21;47.97;100423.34;5087834;28;20475;-39
2023/04/07 05:05:20;;;;;;;12.60;2.20;;;;;;;5.31;47.87;100426.75;5077592;28;20118;-39
2023/04/07 05:07:48;;;;;;;6.35;1.98;;;;;;;5.43;47.49;100424.16;5085509;28;20508;-40
2023/04/07 05:10:15;;;;;;;10.68;2.50;;;;;;;5.49;47.76;100427.59;5104561;28;20040;-39
2023/04/07 05:12:47;;;;;;;5.53;2.42;;;;;;;5.57;47.50;100424.13;5071958;28;20036;-41
2023/04/07 05:15:14;;;;;;;5.60;2.78;;;;;;;5.62;47.11;100423.25;5074474;28;20135;-39
2023/04/07 05:17:40;;;;;;;3.50;1.58;;;;;;;5.67;47.18;100426.69;5085999;28;20082;-38
2023/04/07 05:20:10;;;;;;;9.05;2.45;;;;;;;5.74;46.76;100435.28;5079062;28;20032;-40
2023/04/07 05:22:40;;;;;;;5.55;2.63;;;;;;;5.80;47.18;100430.09;5072872;28;20052;-40
2023/04/07 05:25:11;;;;;;;15.07;2.65;;;;;;;5.89;46.72;100440.41;5097098;28;20101;-41
2023/04/07 05:27:40;;;;;;;7.10;3.20;;;;;;;5.80;46.69;100409.47;5072435;28;20040;-38
2023/04/07 05:30:12;;;;;;;7.68;2.10;;;;;;;6.07;46.80;100435.16;5074298;28;20044;-39
2023/04/07 05:32:38;;;;;;;17.38;2.30;;;;;;;6.18;46.05;100443.72;5085488;28;20075;-40
2023/04/07 05:35:11;;;;;;;5.72;1.80;;;;;;;6.17;46.39;100436.88;5071215;28;20131;-41
2023/04/07 05:37:46;;;;;;;3.58;1.42;;;;;;;6.08;45.97;100417.97;5072957;28;20044;-38
2023/04/07 05:40:12;;;;;;;12.90;2.20;;;;;;;6.29;45.65;100441.09;5057989;28;20670;-39
2023/04/07 05:42:39;;;;;;;6.18;1.55;;;;;;;6.36;45.64;100438.50;5084922;28;20083;-41
2023/04/07 05:45:05;;;;;;;5.13;1.60;;;;;;;6.45;45.83;100437.56;5051104;28;20466;-38
2023/04/07 05:47:32;;;;;;;12.00;2.95;;;;;;;6.48;45.18;100423.81;5068197;28;20058;-39
2023/04/07 05:49:59;;;;;;;11.15;1.90;;;;;;;6.67;45.29;100426.25;5084574;28;20064;-39
2023/04/07 05:52:25;;;;;;;8.10;2.97;;;;;;;7.01;44.59;100444.13;5088506;28;20071;-38
2023/04/07 05:55:01;;;;;;;5.00;2.05;;;;;;;7.22;44.93;100442.19;5087698;28;20531;-39
2023/04/07 05:57:30;;;;;;;13.30;2.10;;;;;;;7.55;44.23;100445.34;5065974;28;20043;-40
2023/04/07 05:59:59;;;;;;;6.95;2.75;;;;;;;7.92;43.81;100438.91;5045960;28;20032;-40
2023/04/07 06:02:25;;;;;;;5.57;1.90;;;;;;;8.48;42.79;100442.53;5082263;28;20071;-40
2023/04/07 06:04:52;;;;;;;5.13;1.60;;;;;;;9.03;41.92;100449.50;5067930;28;20503;-40
2023/04/07 06:07:19;;;;;;;8.15;1.73;;;;;;;9.60;40.76;100419.97;5088697;28;20047;-40
2023/04/07 06:09:45;;;;;;;3.38;1.40;;;;;;;10.58;39.64;100445.69;5080140;28;20044;-40
2023/04/07 06:12:12;;;;;;;3.33;1.80;;;;;;;11.38;38.38;100422.06;5083429;28;20104;-37
2023/04/07 06:14:38;;;;;;;9.30;2.05;;;;;;;12.31;36.92;100424.72;5067173;28;20040;-38
2023/04/07 06:17:05;;;;;;;14.98;3.03;;;;;;;13.29;35.74;100441.66;5068731;28;20037;-38
2023/04/07 06:19:31;;;;;;;7.35;1.90;;;;;;;13.86;34.39;100412.66;5079679;28;20040;-39
2023/04/07 06:21:59;;;;;;;7.20;2.78;;;;;;;14.78;33.11;100442.31;5082277;28;20556;-40
2023/04/07 06:24:26;;;;;;;7.53;2.17;;;;;;;15.51;32.41;100447.19;5089798;28;20040;-39
2023/04/07 06:26:52;;;;;;;6.82;2.17;;;;;;;16.33;31.12;100447.97;5053270;28;20085;-39
2023/04/07 06:29:20;;;;;;;12.13;1.98;;;;;;;17.10;29.80;100452.16;5075655;28;20072;-38
2023/04/07 06:31:46;;;;;;;15.68;1.92;;;;;;;17.82;28.68;100445.94;5078649;28;20082;-38
2023/04/07 06:34:12;;;;;;;4.30;2.00;;;;;;;18.51;27.54;100452.72;5074192;28;20470;-40
2023/04/07 06:36:37;;;;;;;6.80;2.40;;;;;;;19.27;26.80;100450.19;5091255;27;20044;-39
2023/04/07 06:39:04;;;;;;;10.35;2.17;;;;;;;19.78;25.97;100449.78;5068300;28;20538;-39
2023/04/07 06:41:30;;;;;;;13.85;2.10;;;;;;;20.33;25.09;100445.59;5068712;28;20068;-39
2023/04/07 06:43:56;;;;;;;8.70;2.03;;;;;;;20.81;24.37;100453.06;5067702;28;20063;-38
2023/04/07 06:46:22;;;;;;;6.78;1.90;;;;;;;21.50;23.73;100452.91;5078410;28;20040;-39
2023/04/07 06:48:48;;;;;;;5.95;1.98;;;;;;;22.09;22.81;100455.94;5088407;28;20185;-40
2023/04/07 06:51:14;;;;;;;7.45;2.55;;;;;;;22.81;22.22;100457.00;5077957;28;20123;-39
2023/04/07 06:53:40;;;;;;;13.18;3.00;;;;;;;23.11;21.61;100438.81;5077786;28;20040;-41
2023/04/07 06:56:10;;;;;;;6.30;1.88;;;;;;;23.74;20.81;100450.88;5067915;28;20040;-40
2023/04/07 06:58:37;;;;;;;8.82;2.58;;;;;;;24.30;20.10;100465.09;5067407;28;20619;-40
2023/04/07 07:01:04;;;;;;;5.88;2.22;;;;;;;24.48;19.59;100457.47;5084164;28;20039;-43
2023/04/07 07:03:30;;;;;;;4.32;1.98;;;;;;;24.82;19.38;100452.94;5068206;28;20102;-39
2023/04/07 07:05:57;;;;;;;5.20;1.90;;;;;;;25.39;18.76;100454.47;5067969;28;20063;-40
2023/04/07 07:08:24;;;;;;;12.45;2.50;;;;;;;26.00;18.38;100450.16;5066862;28;20491;-39
2023/04/07 07:10:50;;;;;;;4.28;2.30;;;;;;;26.54;17.64;100458.66;5083473;28;20503;-39
2023/04/07 07:13:17;;;;;;;9.98;2.75;;;;;;;26.95;17.42;100455.00;5083018;28;20049;-40
2023/04/07 07:15:44;;;;;;;8.00;2.60;;;;;;;27.48;17.06;100441.22;5075823;28;20507;-40
2023/04/07 07:18:10;;;;;;;6.10;3.78;;;;;;;28.03;16.46;100428.06;5091964;28;20047;-40
2023/04/07 07:20:36;;;;;;;10.43;2.20;;;;;;;28.30;16.35;100449.53;5078173;28;20036;-38
2023/04/07 07:23:02;;;;;;;8.73;2.60;;;;;;;28.69;15.68;100449.31;5086538;28;20727;-38
2023/04/07 07:25:28;;;;;;;6.72;1.90;;;;;;;28.99;15.46;100449.88;5047450;28;20040;-39
2023/04/07 07:27:54;;;;;;;10.00;2.38;;;;;;;29.48;14.89;100456.53;5083242;28;20605;-40
2023/04/07 07:30:23;;;;;;;6.03;2.15;;;;;;;29.83;14.74;100446.75;5066798;28;20047;-41
2023/04/07 07:32:50;;;;;;;6.35;2.35;;;;;;;30.06;14.59;100458.63;5080015;28;20094;-44
2023/04/07 07:35:16;;;;;;;8.30;2.10;;;;;;;30.19;14.56;100448.31;5079695;28;20404;-39
2023/04/07 07:37:43;;;;;;;7.35;3.10;;;;;;;30.16;14.41;100451.31;5078048;28;20043;-43
2023/04/07 07:40:10;;;;;;;6.93;3.22;;;;;;;30.18;14.35;100459.19;5032953;28;20534;-40
2023/04/07 07:42:37;;;;;;;7.68;2.78;;;;;;;30.43;14.03;100439.53;5068129;28;20558;-40
2023/04/07 07:45:03;;;;;;;9.07;3.35;;;;;;;30.96;13.51;100433.84;5068033;28;20114;-40
2023/04/07 07:47:30;;;;;;;11.55;5.70;;;;;;;31.58;13.37;100447.69;5074404;28;20504;-39
2023/04/07 07:49:55;;;;;;;8.10;3.42;;;;;;;31.66;13.05;100442.31;5079885;28;20040;-39
2023/04/07 07:52:21;;;;;;;4.38;1.92;;;;;;;31.86;13.00;100432.88;5083103;28;20040;-40
2023/04/07 07:54:49;;;;;;;7.40;2.85;;;;;;;32.22;12.85;100451.28;5083810;28;20373;-40
2023/04/07 07:57:15;;;;;;;6.78;2.65;;;;;;;32.19;12.68;100447.09;5085865;28;20055;-39
2023/04/07 07:59:41;;;;;;;8.60;2.30;;;;;;;32.13;12.59;100449.66;5065931;28;20138;-40
2023/04/07 08:02:08;;;;;;;3.88;2.25;;;;;;;32.28;12.29;100439.84;5076887;28;20563;-43
2023/04/07 08:04:35;;;;;;;6.75;1.92;;;;;;;32.37;12.57;100438.78;5072935;28;20070;-43
2023/04/07 08:07:01;;;;;;;3.50;1.70;;;;;;;32.32;12.53;100441.16;5079915;28;20405;-40
2023/04/07 08:09:27;;;;;;;6.53;2.45;;;;;;;32.52;12.18;100441.56;5083478;28;20044;-41
2023/04/07 08:11:54;;;;;;;4.75;2.00;;;;;;;32.59;12.28;100439.88;5070242;28;20060;-40
2023/04/07 08:14:19;;;;;;;5.68;1.92;;;;;;;32.41;12.25;100412.34;5084923;28;20129;-40
2023/04/07 08:16:45;;;;;;;11.80;6.43;;;;;;;32.45;12.16;100424.47;5079965;28;20048;-41
2023/04/07 08:19:12;;;;;;;27.88;19.85;;;;;;;32.50;11.80;100408.63;5066957;28;20043;-39
2023/04/07 08:21:38;;;;;;;6.28;4.15;;;;;;;32.75;11.76;100421.78;5072423;28;20154;-41
2023/04/07 08:24:05;;;;;;;4.82;1.98;;;;;;;32.58;11.53;100393.25;5074545;28;20096;-40
2023/04/07 08:26:31;;;;;;;4.75;1.50;;;;;;;32.98;11.42;100420.94;5070548;28;20055;-40
2023/04/07 08:28:57;;;;;;;8.93;3.70;;;;;;;32.88;11.69;100414.97;5073544;28;20055;-39
2023/04/07 08:31:24;;;;;;;13.13;2.08;;;;;;;32.87;11.33;100427.59;5079723;28;20039;-42
2023/04/07 08:33:53;;;;;;;12.70;2.00;;;;;;;33.20;11.09;100420.16;5076527;28;20125;-41
2023/04/07 08:36:20;;;;;;;5.18;1.40;;;;;;;33.00;10.96;100424.31;5073776;28;20508;-40
2023/04/07 08:38:46;;;;;;;3.60;1.33;;;;;;;32.88;11.07;100421.19;5079181;28;20043;-42
2023/04/07 08:41:12;;;;;;;6.57;1.70;;;;;;;33.25;11.16;100416.91;5082669;28;20035;-40
2023/04/07 08:43:40;;;;;;;11.00;2.75;;;;;;;33.61;10.82;100413.38;5082084;28;20055;-41
2023/04/07 08:46:08;;;;;;;3.60;1.60;;;;;;;34.08;10.51;100425.72;5102316;27;20104;-40
2023/04/07 08:48:37;;;;;;;3.88;1.38;;;;;;;34.41;10.47;100423.47;5074628;28;20538;-40
2023/04/07 08:51:08;;;;;;;6.07;1.20;;;;;;;34.05;10.40;100409.91;5081250;28;20090;-41
2023/04/07 08:53:41;;;;;;;2.08;1.55;;;;;;;34.28;10.33;100401.72;5080851;28;20042;-41
2023/04/07 08:56:07;;;;;;;4.07;1.88;;;;;;;34.21;10.22;100431.34;5076932;28;20051;-40
2023/04/07 08:58:34;;;;;;;6.65;1.67;;;;;;;34.15;10.05;100406.91;5081716;28;20048;-43
2023/04/07 09:01:03;;;;;;;3.08;1.50;;;;;;;34.71;9.92;100419.72;5068494;28;20044;-40
2023/04/07 09:03:31;;;;;;;3.72;1.63;;;;;;;35.05;9.72;100405.53;5056830;28;20411;-40
2023/04/07 09:05:57;;;;;;;;;;;;;;;34.95;10.03;100420.41;5089153;28;20044;-41
2023/04/07 09:08:23;;;;;;;5.10;1.60;;;;;;;34.77;10.01;100426.22;5077217;28;19920;-51
2023/04/07 09:10:50;;;;;;;3.35;1.40;;;;;;;35.05;9.76;100420.91;5054745;28;20067;-41
2023/04/07 09:13:16;;;;;;;4.13;1.73;;;;;;;35.23;9.37;100399.66;5080750;28;20105;-40
2023/04/07 09:15:42;;;;;;;4.82;1.70;;;;;;;35.11;9.52;100414.75;5091658;28;20082;-42
2023/04/07 09:18:08;;;;;;;3.60;1.85;;;;;;;35.24;9.66;100401.34;5082552;28;20043;-41
2023/04/07 09:20:56;;;;;;;5.10;1.90;;;;;;;35.50;9.51;100415.09;5075025;28;20044;-40
2023/04/07 09:23:30;;;;;;;3.72;1.50;;;;;;;36.01;9.34;100406.75;5076423;28;20040;-41
2023/04/07 09:25:58;;;;;;;2.22;1.50;;;;;;;35.94;9.07;100411.28;5079037;28;20431;-39
2023/04/07 09:28:25;;;;;;;9.10;1.83;;;;;;;36.15;8.94;100405.78;5071821;28;20036;-40
2023/04/07 09:30:54;;;;;;;6.10;2.45;;;;;;;36.69;8.82;100405.81;5081082;28;20036;-40
2023/04/07 09:33:27;;;;;;;3.38;2.03;;;;;;;37.02;9.07;100415.88;5076100;28;20032;-40
2023/04/07 09:35:53;;;;;;;9.23;2.25;;;;;;;37.00;8.75;100407.97;5073644;28;20074;-40
2023/04/07 09:38:19;;;;;;;8.60;5.32;;;;;;;37.11;8.89;100403.84;5079536;28;20081;-41
2023/04/07 09:40:47;;;;;;;30.23;20.85;;;;;;;37.20;8.65;100405.31;5076515;28;20445;-39
2023/04/07 09:43:18;;;;;;;17.30;8.98;;;;;;;37.47;9.03;100398.00;5078145;28;20056;-41
2023/04/07 09:45:44;;;;;;;5.72;2.50;;;;;;;37.64;8.73;100410.09;5074280;28;20055;-41
2023/04/07 09:48:18;;;;;;;5.78;2.10;;;;;;;37.67;8.51;100401.56;5092278;28;20048;-41
2023/04/07 09:50:48;;;;;;;3.47;1.60;;;;;;;37.11;8.58;100404.66;5077289;28;20020;-42
2023/04/07 09:53:22;;;;;;;2.05;1.45;;;;;;;36.62;9.06;100398.72;5081209;28;20040;-40
2023/04/07 09:55:49;;;;;;;4.30;1.70;;;;;;;36.46;9.23;100399.88;5077990;28;20497;-41
2023/04/07 09:58:15;;;;;;;6.28;1.90;;;;;;;36.68;8.72;100408.75;5082467;28;20033;-40
2023/04/07 10:00:41;;;;;;;3.45;1.60;;;;;;;36.71;8.71;100392.06;5073873;28;20044;-40
2023/04/07 10:03:07;;;;;;;2.65;1.80;;;;;;;37.01;8.95;100408.78;5052082;28;20090;-40
2023/04/07 10:05:36;;;;;;;2.40;1.90;;;;;;;36.61;9.04;100391.56;5079265;28;20123;-41
2023/04/07 10:08:05;;;;;;;1.98;1.80;;;;;;;36.69;8.91;100405.00;5079711;28;20492;-40
2023/04/07 10:10:31;;;;;;;4.22;1.70;;;;;;;36.97;8.52;100405.66;5082866;28;20105;-41
2023/04/07 10:12:57;;;;;;;4.75;1.85;;;;;;;37.03;8.86;100401.28;5075086;28;20056;-40
2023/04/07 10:15:23;;;;;;;4.97;1.90;;;;;;;36.95;8.85;100396.91;5077574;28;20079;-41
2023/04/07 10:17:50;;;;;;;6.28;1.95;;;;;;;36.97;8.55;100407.53;5070706;28;20040;-40
2023/04/07 10:20:19;;;;;;;5.90;1.58;;;;;;;36.35;9.04;100398.59;5077604;28;20473;-41
2023/04/07 10:22:47;;;;;;;3.50;1.67;;;;;;;35.58;9.30;100393.31;5068600;28;20062;-39
2023/04/07 10:25:13;;;;;;;;;;;;;;;35.39;9.41;100393.97;5083909;28;20051;-39
2023/04/07 10:27:50;;;;;;;3.15;1.38;;;;;;;35.14;9.39;100388.13;5065778;28;20455;-41
2023/04/07 10:30:23;;;;;;;4.22;1.77;;;;;;;34.85;9.87;100401.81;5079710;28;20088;-40
2023/04/07 10:32:51;;;;;;;7.47;1.90;;;;;;;34.39;9.96;100390.41;5089514;28;20036;-39
2023/04/07 10:35:17;;;;;;;5.45;1.85;;;;;;;33.99;9.95;100387.19;5077134;28;20585;-40
2023/04/07 10:38:15;;;;;;;5.68;1.60;;;;;;;33.17;10.61;100391.72;5062439;28;20085;-39
2023/04/07 10:40:42;;;;;;;3.95;1.42;;;;;;;32.70;10.31;100385.63;5072765;28;20044;-40
2023/04/07 10:43:10;;;;;;;9.07;2.45;;;;;;;32.17;10.73;100387.22;5073440;28;20044;-40
2023/04/07 10:45:45;;;;;;;5.65;1.67;;;;;;;32.30;10.96;100382.09;5077438;28;20529;-39
2023/04/07 10:48:12;;;;;;;4.35;2.05;;;;;;;32.15;10.72;100391.94;5071282;28;20091;-40
2023/04/07 10:50:38;;;;;;;3.70;1.42;;;;;;;31.88;10.67;100400.41;5068171;28;20474;-42
2023/04/07 10:53:15;;;;;;;4.78;1.60;;;;;;;31.79;10.97;100394.22;5075542;28;20082;-39
2023/04/07 10:55:53;;;;;;;4.50;1.20;;;;;;;31.89;10.55;100400.22;5074285;28;20123;-40
2023/04/07 10:58:23;;;;;;;6.22;1.77;;;;;;;32.46;10.37;100399.19;5079022;28;20517;-39
2023/04/07 11:01:09;;;;;;;7.97;2.20;;;;;;;32.57;10.51;100391.56;5072634;28;20055;-40
2023/04/07 11:03:37;;;;;;;10.65;6.53;;;;;;;32.83;10.66;100390.41;5068263;28;20245;-42
2023/04/07 11:06:03;;;;;;;;;;;;;;;32.92;10.70;100397.44;5086414;28;20052;-40
2023/04/07 11:08:41;;;;;;;3.63;1.35;;;;;;;33.15;10.10;100387.47;5081919;28;20019;-41
2023/04/07 11:11:08;;;;;;;8.10;3.67;;;;;;;33.07;9.85;100393.78;5073422;28;20124;-39
2023/04/07 11:13:48;;;;;;;4.40;2.27;;;;;;;33.46;9.98;100390.09;5085122;28;20036;-40
2023/04/07 11:16:16;;;;;;;6.65;3.38;;;;;;;33.80;9.94;100386.91;5078660;28;20050;-39
2023/04/07 11:18:43;;;;;;;6.15;2.30;;;;;;;34.31;9.72;100391.38;5078933;28;20126;-38
2023/04/07 11:21:09;;;;;;;5.27;1.70;;;;;;;34.22;9.87;100397.06;5084920;28;20179;-40
2023/04/07 11:23:44;;;;;;;4.10;1.80;;;;;;;33.98;9.64;100385.50;5067803;28;20076;-39
2023/04/07 11:26:13;;;;;;;3.80;1.50;;;;;;;33.88;9.58;100382.25;5081995;28;20028;-41
2023/04/07 11:28:51;;;;;;;2.90;1.50;;;;;;;33.87;9.94;100387.84;5036644;28;20127;-39
2023/04/07 11:31:35;;;;;;;5.30;1.85;;;;;;;33.89;9.85;100386.63;5082701;28;20036;-40
2023/04/07 11:34:03;;;;;;;6.38;1.77;;;;;;;33.68;10.08;100381.13;5069575;28;20409;-40
2023/04/07 11:36:31;;;;;;;2.83;1.20;;;;;;;33.29;10.01;100380.50;5094383;28;20036;-40
2023/04/07 11:38:58;;;;;;;2.28;1.40;;;;;;;32.53;10.31;100379.47;5086205;28;20042;-40